Harpersville, Alabama
Current Conditions -  °F | °C
As of 7:35 AM on Wednesday 22 Oct 2014 (Local Time) from KSCD Reporting Station
Clear Clear  
Wind Chill: 49°   Ceiling: Unl
Heat Index: 49°   Visibility: 10mi
Dew Point: 48°   Wind: 0mph
Humidity: 98%   Direction: NA
Pressure: 30.14"   Gusts: NA
Location:  33.34°N, 86.44°W
Report Text: KSCD 221235Z AUTO 00000KT 10SM CLR 09/09 A3014 RMK AO2 T00940091
Loading
Personal Weather Stations






























Interactive Weather Map New forecast layout! Learn more

10-Day Weather Forecast

Advertisements
Track Severe Weather on mobile